sensor_id;sensor_type;location;lat;lon;timestamp;temperature;humidity
46091;DHT22;31826;53.572;10.170;2023-12-20T00:01:05;5.80;99.90
46091;DHT22;31826;53.572;10.170;2023-12-20T00:03:30;5.80;99.90
46091;DHT22;31826;53.572;10.170;2023-12-20T00:05:56;5.70;99.90
46091;DHT22;31826;53.572;10.170;2023-12-20T00:08:22;5.70;99.90
46091;DHT22;31826;53.572;10.170;2023-12-20T00:10:48;5.70;99.90
46091;DHT22;31826;53.572;10.170;2023-12-20T00:13:13;5.70;99.90
46091;DHT22;31826;53.572;10.170;2023-12-20T00:15:39;5.70;99.90
46091;DHT22;31826;53.572;10.170;2023-12-20T00:18:05;5.60;99.90
46091;DHT22;31826;53.572;10.170;2023-12-20T00:20:30;5.60;99.90
46091;DHT22;31826;53.572;10.170;2023-12-20T00:22:57;5.60;99.90
46091;DHT22;31826;53.572;10.170;2023-12-20T00:25:26;5.60;99.90
46091;DHT22;31826;53.572;10.170;2023-12-20T00:27:52;5.50;99.90
46091;DHT22;31826;53.572;10.170;2023-12-20T00:30:18;5.50;99.90
46091;DHT22;31826;53.572;10.170;2023-12-20T00:32:44;5.50;99.90
46091;DHT22;31826;53.572;10.170;2023-12-20T00:35:14;5.50;99.90
46091;DHT22;31826;53.572;10.170;2023-12-20T00:37:41;5.50;99.90
46091;DHT22;31826;53.572;10.170;2023-12-20T00:40:07;5.50;99.90
46091;DHT22;31826;53.572;10.170;2023-12-20T00:42:33;5.40;99.90
46091;DHT22;31826;53.572;10.170;2023-12-20T00:44:59;5.50;99.90
46091;DHT22;31826;53.572;10.170;2023-12-20T00:47:25;5.50;99.90
46091;DHT22;31826;53.572;10.170;2023-12-20T00:49:51;5.50;99.90
46091;DHT22;31826;53.572;10.170;2023-12-20T00:52:17;5.50;99.90
46091;DHT22;31826;53.572;10.170;2023-12-20T00:54:43;5.50;99.90
46091;DHT22;31826;53.572;10.170;2023-12-20T00:57:09;5.50;99.90
46091;DHT22;31826;53.572;10.170;2023-12-20T00:59:35;5.60;99.90
46091;DHT22;31826;53.572;10.170;2023-12-20T01:02:01;5.60;99.90
46091;DHT22;31826;53.572;10.170;2023-12-20T01:04:26;5.60;99.90
46091;DHT22;31826;53.572;10.170;2023-12-20T01:06:52;5.60;99.90
46091;DHT22;31826;53.572;10.170;2023-12-20T01:09:18;5.60;99.90
46091;DHT22;31826;53.572;10.170;2023-12-20T01:11:44;5.70;99.90
46091;DHT22;31826;53.572;10.170;2023-12-20T01:14:12;5.70;99.90
46091;DHT22;31826;53.572;10.170;2023-12-20T01:16:37;5.70;99.90
46091;DHT22;31826;53.572;10.170;2023-12-20T01:19:03;5.70;99.90
46091;DHT22;31826;53.572;10.170;2023-12-20T01:21:29;5.70;99.90
46091;DHT22;31826;53.572;10.170;2023-12-20T01:23:54;5.60;99.90
46091;DHT22;31826;53.572;10.170;2023-12-20T01:26:20;5.70;99.90
46091;DHT22;31826;53.572;10.170;2023-12-20T01:28:46;5.60;99.90
46091;DHT22;31826;53.572;10.170;2023-12-20T01:31:11;5.60;99.90
46091;DHT22;31826;53.572;10.170;2023-12-20T01:33:37;5.60;99.90
46091;DHT22;31826;53.572;10.170;2023-12-20T01:36:03;5.50;99.90
46091;DHT22;31826;53.572;10.170;2023-12-20T01:38:29;5.50;99.90
46091;DHT22;31826;53.572;10.170;2023-12-20T01:40:55;5.50;99.90
46091;DHT22;31826;53.572;10.170;2023-12-20T01:43:21;5.40;99.90
46091;DHT22;31826;53.572;10.170;2023-12-20T01:45:47;5.40;99.90
46091;DHT22;31826;53.572;10.170;2023-12-20T01:48:13;5.40;99.90
46091;DHT22;31826;53.572;10.170;2023-12-20T01:50:40;5.40;99.90
46091;DHT22;31826;53.572;10.170;2023-12-20T01:53:08;5.40;99.90
46091;DHT22;31826;53.572;10.170;2023-12-20T01:55:36;5.40;99.90
46091;DHT22;31826;53.572;10.170;2023-12-20T01:58:05;5.30;99.90
46091;DHT22;31826;53.572;10.170;2023-12-20T02:00:31;5.40;99.90
46091;DHT22;31826;53.572;10.170;2023-12-20T02:03:00;5.30;99.90
46091;DHT22;31826;53.572;10.170;2023-12-20T02:05:26;5.30;99.90
46091;DHT22;31826;53.572;10.170;2023-12-20T02:07:53;5.40;99.90
46091;DHT22;31826;53.572;10.170;2023-12-20T02:10:19;5.40;99.90
46091;DHT22;31826;53.572;10.170;2023-12-20T02:12:45;5.50;99.90
46091;DHT22;31826;53.572;10.170;2023-12-20T02:15:10;5.50;99.90
46091;DHT22;31826;53.572;10.170;2023-12-20T02:17:36;5.40;99.90
46091;DHT22;31826;53.572;10.170;2023-12-20T02:20:04;5.40;99.90
46091;DHT22;31826;53.572;10.170;2023-12-20T02:22:31;5.50;99.90
46091;DHT22;31826;53.572;10.170;2023-12-20T02:24:57;5.40;99.90
46091;DHT22;31826;53.572;10.170;2023-12-20T02:27:23;5.40;99.90
46091;DHT22;31826;53.572;10.170;2023-12-20T02:29:49;5.40;99.90
46091;DHT22;31826;53.572;10.170;2023-12-20T02:32:17;5.40;99.90
46091;DHT22;31826;53.572;10.170;2023-12-20T02:34:43;5.40;99.90
46091;DHT22;31826;53.572;10.170;2023-12-20T02:37:09;5.40;99.90
46091;DHT22;31826;53.572;10.170;2023-12-20T02:39:35;5.40;99.90
46091;DHT22;31826;53.572;10.170;2023-12-20T02:42:01;5.30;99.90
46091;DHT22;31826;53.572;10.170;2023-12-20T02:44:26;5.30;99.90
46091;DHT22;31826;53.572;10.170;2023-12-20T02:46:52;5.40;99.90
46091;DHT22;31826;53.572;10.170;2023-12-20T02:49:18;5.40;99.90
46091;DHT22;31826;53.572;10.170;2023-12-20T02:51:43;5.40;99.90
46091;DHT22;31826;53.572;10.170;2023-12-20T02:54:09;5.50;99.90
46091;DHT22;31826;53.572;10.170;2023-12-20T02:56:35;5.40;99.90
46091;DHT22;31826;53.572;10.170;2023-12-20T02:59:01;5.50;99.90
46091;DHT22;31826;53.572;10.170;2023-12-20T03:01:28;5.50;99.90
46091;DHT22;31826;53.572;10.170;2023-12-20T03:03:54;5.50;99.90
46091;DHT22;31826;53.572;10.170;2023-12-20T03:06:20;5.50;99.90
46091;DHT22;31826;53.572;10.170;2023-12-20T03:08:46;5.50;99.90
46091;DHT22;31826;53.572;10.170;2023-12-20T03:11:12;5.50;99.90
46091;DHT22;31826;53.572;10.170;2023-12-20T03:13:37;5.50;99.90
46091;DHT22;31826;53.572;10.170;2023-12-20T03:16:10;5.50;99.90
46091;DHT22;31826;53.572;10.170;2023-12-20T03:18:36;5.50;99.90
46091;DHT22;31826;53.572;10.170;2023-12-20T03:21:03;5.50;99.90
46091;DHT22;31826;53.572;10.170;2023-12-20T03:23:29;5.50;99.90
46091;DHT22;31826;53.572;10.170;2023-12-20T03:25:56;5.50;99.90
46091;DHT22;31826;53.572;10.170;2023-12-20T03:28:22;5.50;99.90
46091;DHT22;31826;53.572;10.170;2023-12-20T03:30:48;5.50;99.90
46091;DHT22;31826;53.572;10.170;2023-12-20T03:33:14;5.40;99.90
46091;DHT22;31826;53.572;10.170;2023-12-20T03:35:40;5.40;99.90
46091;DHT22;31826;53.572;10.170;2023-12-20T03:38:05;5.50;99.90
46091;DHT22;31826;53.572;10.170;2023-12-20T03:40:31;5.50;99.90
46091;DHT22;31826;53.572;10.170;2023-12-20T03:42:57;5.50;99.90
46091;DHT22;31826;53.572;10.170;2023-12-20T03:45:23;5.40;99.90
46091;DHT22;31826;53.572;10.170;2023-12-20T03:47:48;5.50;99.90
46091;DHT22;31826;53.572;10.170;2023-12-20T03:50:15;5.40;99.90
46091;DHT22;31826;53.572;10.170;2023-12-20T03:52:40;5.40;99.90
46091;DHT22;31826;53.572;10.170;2023-12-20T03:55:06;5.50;99.90
46091;DHT22;31826;53.572;10.170;2023-12-20T03:57:32;5.50;99.90
46091;DHT22;31826;53.572;10.170;2023-12-20T03:59:57;5.40;99.90
46091;DHT22;31826;53.572;10.170;2023-12-20T04:02:23;5.40;99.90
46091;DHT22;31826;53.572;10.170;2023-12-20T04:04:49;5.40;99.90
46091;DHT22;31826;53.572;10.170;2023-12-20T04:07:14;5.40;99.90
46091;DHT22;31826;53.572;10.170;2023-12-20T04:09:41;5.40;99.90
46091;DHT22;31826;53.572;10.170;2023-12-20T04:12:07;5.40;99.90
46091;DHT22;31826;53.572;10.170;2023-12-20T04:14:32;5.50;99.90
46091;DHT22;31826;53.572;10.170;2023-12-20T04:16:58;5.50;99.90
46091;DHT22;31826;53.572;10.170;2023-12-20T04:19:24;5.40;99.90
46091;DHT22;31826;53.572;10.170;2023-12-20T04:21:49;5.50;99.90
46091;DHT22;31826;53.572;10.170;2023-12-20T04:24:15;5.50;99.90
46091;DHT22;31826;53.572;10.170;2023-12-20T04:26:41;5.50;99.90
46091;DHT22;31826;53.572;10.170;2023-12-20T04:29:07;5.50;99.90
46091;DHT22;31826;53.572;10.170;2023-12-20T04:31:32;5.50;99.90
46091;DHT22;31826;53.572;10.170;2023-12-20T04:33:58;5.50;99.90
46091;DHT22;31826;53.572;10.170;2023-12-20T04:36:24;5.50;99.90
46091;DHT22;31826;53.572;10.170;2023-12-20T04:38:53;5.50;99.90
46091;DHT22;31826;53.572;10.170;2023-12-20T04:41:18;5.50;99.90
46091;DHT22;31826;53.572;10.170;2023-12-20T04:43:44;5.50;99.90
46091;DHT22;31826;53.572;10.170;2023-12-20T04:46:10;5.50;99.90
46091;DHT22;31826;53.572;10.170;2023-12-20T04:48:36;5.50;99.90
46091;DHT22;31826;53.572;10.170;2023-12-20T04:51:02;5.50;99.90
46091;DHT22;31826;53.572;10.170;2023-12-20T04:53:28;5.50;99.90
46091;DHT22;31826;53.572;10.170;2023-12-20T04:55:54;5.50;99.90
46091;DHT22;31826;53.572;10.170;2023-12-20T04:58:19;5.50;99.90
46091;DHT22;31826;53.572;10.170;2023-12-20T05:00:45;5.50;99.90
46091;DHT22;31826;53.572;10.170;2023-12-20T05:03:11;5.50;99.90
46091;DHT22;31826;53.572;10.170;2023-12-20T05:05:37;5.60;99.90
46091;DHT22;31826;53.572;10.170;2023-12-20T05:08:03;5.50;99.90
46091;DHT22;31826;53.572;10.170;2023-12-20T05:10:29;5.60;99.90
46091;DHT22;31826;53.572;10.170;2023-12-20T05:12:55;5.60;99.90
46091;DHT22;31826;53.572;10.170;2023-12-20T05:15:20;5.60;99.90
46091;DHT22;31826;53.572;10.170;2023-12-20T05:17:46;5.60;99.90
46091;DHT22;31826;53.572;10.170;2023-12-20T05:20:12;5.70;99.90
46091;DHT22;31826;53.572;10.170;2023-12-20T05:22:37;5.70;99.90
46091;DHT22;31826;53.572;10.170;2023-12-20T05:25:04;5.70;99.90
46091;DHT22;31826;53.572;10.170;2023-12-20T05:27:30;5.60;99.90
46091;DHT22;31826;53.572;10.170;2023-12-20T05:29:55;5.70;99.90
46091;DHT22;31826;53.572;10.170;2023-12-20T05:32:23;5.70;99.90
46091;DHT22;31826;53.572;10.170;2023-12-20T05:34:49;5.70;99.90
46091;DHT22;31826;53.572;10.170;2023-12-20T05:37:14;5.70;99.90
46091;DHT22;31826;53.572;10.170;2023-12-20T05:39:40;5.70;99.90
46091;DHT22;31826;53.572;10.170;2023-12-20T05:42:06;5.70;99.90
46091;DHT22;31826;53.572;10.170;2023-12-20T05:44:32;5.80;99.90
46091;DHT22;31826;53.572;10.170;2023-12-20T05:46:57;5.70;99.90
46091;DHT22;31826;53.572;10.170;2023-12-20T05:49:23;5.70;99.90
46091;DHT22;31826;53.572;10.170;2023-12-20T05:51:49;5.70;99.90
46091;DHT22;31826;53.572;10.170;2023-12-20T05:54:16;5.70;99.90
46091;DHT22;31826;53.572;10.170;2023-12-20T05:56:42;5.70;99.90
46091;DHT22;31826;53.572;10.170;2023-12-20T05:59:08;5.80;99.90
46091;DHT22;31826;53.572;10.170;2023-12-20T06:01:33;5.80;99.90
46091;DHT22;31826;53.572;10.170;2023-12-20T06:03:59;5.80;99.90
46091;DHT22;31826;53.572;10.170;2023-12-20T06:06:25;5.70;99.90
46091;DHT22;31826;53.572;10.170;2023-12-20T06:08:50;5.70;99.90
46091;DHT22;31826;53.572;10.170;2023-12-20T06:11:16;5.70;99.90
46091;DHT22;31826;53.572;10.170;2023-12-20T06:13:42;5.70;99.90
46091;DHT22;31826;53.572;10.170;2023-12-20T06:16:07;5.70;99.90
46091;DHT22;31826;53.572;10.170;2023-12-20T06:18:33;5.70;99.90
46091;DHT22;31826;53.572;10.170;2023-12-20T06:20:59;5.70;99.90
46091;DHT22;31826;53.572;10.170;2023-12-20T06:23:24;5.70;99.90
46091;DHT22;31826;53.572;10.170;2023-12-20T06:25:50;5.80;99.90
46091;DHT22;31826;53.572;10.170;2023-12-20T06:28:16;5.80;99.90
46091;DHT22;31826;53.572;10.170;2023-12-20T06:30:41;5.70;99.90
46091;DHT22;31826;53.572;10.170;2023-12-20T06:33:07;5.70;99.90
46091;DHT22;31826;53.572;10.170;2023-12-20T06:35:35;5.70;99.90
46091;DHT22;31826;53.572;10.170;2023-12-20T06:38:00;5.70;99.90
46091;DHT22;31826;53.572;10.170;2023-12-20T06:40:26;5.70;99.90
46091;DHT22;31826;53.572;10.170;2023-12-20T06:42:52;5.60;99.90
46091;DHT22;31826;53.572;10.170;2023-12-20T06:45:18;5.60;99.90
46091;DHT22;31826;53.572;10.170;2023-12-20T06:47:43;5.70;99.90
46091;DHT22;31826;53.572;10.170;2023-12-20T06:50:09;5.70;99.90
46091;DHT22;31826;53.572;10.170;2023-12-20T06:52:35;5.70;99.90
46091;DHT22;31826;53.572;10.170;2023-12-20T06:55:01;5.70;99.90
46091;DHT22;31826;53.572;10.170;2023-12-20T06:57:26;5.70;99.90
46091;DHT22;31826;53.572;10.170;2023-12-20T06:59:53;5.70;99.90
46091;DHT22;31826;53.572;10.170;2023-12-20T07:02:19;5.80;99.90
46091;DHT22;31826;53.572;10.170;2023-12-20T07:04:44;5.70;99.90
46091;DHT22;31826;53.572;10.170;2023-12-20T07:07:10;5.80;99.90
46091;DHT22;31826;53.572;10.170;2023-12-20T07:09:36;5.80;99.90
46091;DHT22;31826;53.572;10.170;2023-12-20T07:12:02;5.80;99.90
46091;DHT22;31826;53.572;10.170;2023-12-20T07:14:28;5.80;99.90
46091;DHT22;31826;53.572;10.170;2023-12-20T07:16:54;5.80;99.90
46091;DHT22;31826;53.572;10.170;2023-12-20T07:19:20;5.70;99.90
46091;DHT22;31826;53.572;10.170;2023-12-20T07:21:46;5.70;99.90
46091;DHT22;31826;53.572;10.170;2023-12-20T07:24:11;5.70;99.90
46091;DHT22;31826;53.572;10.170;2023-12-20T07:26:37;5.70;99.90
46091;DHT22;31826;53.572;10.170;2023-12-20T07:29:04;5.90;99.90
46091;DHT22;31826;53.572;10.170;2023-12-20T07:31:30;5.80;99.90
46091;DHT22;31826;53.572;10.170;2023-12-20T07:33:56;5.80;99.90
46091;DHT22;31826;53.572;10.170;2023-12-20T07:36:21;5.80;99.90
46091;DHT22;31826;53.572;10.170;2023-12-20T07:38:47;5.80;99.90
46091;DHT22;31826;53.572;10.170;2023-12-20T07:41:13;5.80;99.90
46091;DHT22;31826;53.572;10.170;2023-12-20T07:43:41;5.90;99.90
46091;DHT22;31826;53.572;10.170;2023-12-20T07:46:07;5.80;99.90
46091;DHT22;31826;53.572;10.170;2023-12-20T07:48:36;5.90;99.90
46091;DHT22;31826;53.572;10.170;2023-12-20T07:51:06;6.00;99.90
46091;DHT22;31826;53.572;10.170;2023-12-20T07:53:33;5.90;99.90
46091;DHT22;31826;53.572;10.170;2023-12-20T07:55:59;5.90;99.90
46091;DHT22;31826;53.572;10.170;2023-12-20T07:58:25;5.90;99.90
46091;DHT22;31826;53.572;10.170;2023-12-20T08:00:51;5.90;99.90
46091;DHT22;31826;53.572;10.170;2023-12-20T08:03:16;6.00;99.90
46091;DHT22;31826;53.572;10.170;2023-12-20T08:05:42;6.00;99.90
46091;DHT22;31826;53.572;10.170;2023-12-20T08:08:08;6.00;99.90
46091;DHT22;31826;53.572;10.170;2023-12-20T08:10:33;6.00;99.90
46091;DHT22;31826;53.572;10.170;2023-12-20T08:12:59;6.00;99.90
46091;DHT22;31826;53.572;10.170;2023-12-20T08:15:25;6.00;99.90
46091;DHT22;31826;53.572;10.170;2023-12-20T08:17:50;6.00;99.90
46091;DHT22;31826;53.572;10.170;2023-12-20T08:20:17;6.10;99.90
46091;DHT22;31826;53.572;10.170;2023-12-20T08:22:42;6.10;99.90
46091;DHT22;31826;53.572;10.170;2023-12-20T08:25:08;6.00;99.90
46091;DHT22;31826;53.572;10.170;2023-12-20T08:27:39;6.10;99.90
46091;DHT22;31826;53.572;10.170;2023-12-20T08:30:05;6.10;99.90
46091;DHT22;31826;53.572;10.170;2023-12-20T08:32:31;6.10;99.90
46091;DHT22;31826;53.572;10.170;2023-12-20T08:34:57;6.10;99.90
46091;DHT22;31826;53.572;10.170;2023-12-20T08:37:23;6.10;99.90
46091;DHT22;31826;53.572;10.170;2023-12-20T08:39:49;6.20;99.90
46091;DHT22;31826;53.572;10.170;2023-12-20T08:42:15;6.20;99.90
46091;DHT22;31826;53.572;10.170;2023-12-20T08:44:40;6.20;99.90
46091;DHT22;31826;53.572;10.170;2023-12-20T08:47:06;6.20;99.90
46091;DHT22;31826;53.572;10.170;2023-12-20T08:49:32;6.30;99.90
46091;DHT22;31826;53.572;10.170;2023-12-20T08:51:58;6.40;99.90
46091;DHT22;31826;53.572;10.170;2023-12-20T08:54:24;6.40;99.90
46091;DHT22;31826;53.572;10.170;2023-12-20T08:56:50;6.40;99.90
46091;DHT22;31826;53.572;10.170;2023-12-20T08:59:15;6.40;99.90
46091;DHT22;31826;53.572;10.170;2023-12-20T09:01:41;6.40;99.90
46091;DHT22;31826;53.572;10.170;2023-12-20T09:04:07;6.40;99.90
46091;DHT22;31826;53.572;10.170;2023-12-20T09:06:33;6.40;99.90
46091;DHT22;31826;53.572;10.170;2023-12-20T09:08:58;6.40;99.90
46091;DHT22;31826;53.572;10.170;2023-12-20T09:11:24;6.30;99.90
46091;DHT22;31826;53.572;10.170;2023-12-20T09:13:50;6.20;99.90
46091;DHT22;31826;53.572;10.170;2023-12-20T09:16:16;6.20;99.90
46091;DHT22;31826;53.572;10.170;2023-12-20T09:18:42;6.20;99.90
46091;DHT22;31826;53.572;10.170;2023-12-20T09:21:08;6.20;99.90
46091;DHT22;31826;53.572;10.170;2023-12-20T09:23:33;6.20;99.90
46091;DHT22;31826;53.572;10.170;2023-12-20T09:25:59;6.10;99.90
46091;DHT22;31826;53.572;10.170;2023-12-20T09:28:25;6.10;99.90
46091;DHT22;31826;53.572;10.170;2023-12-20T09:30:51;6.10;99.90
46091;DHT22;31826;53.572;10.170;2023-12-20T09:33:16;6.00;99.90
46091;DHT22;31826;53.572;10.170;2023-12-20T09:35:42;6.00;99.90
46091;DHT22;31826;53.572;10.170;2023-12-20T09:38:08;5.90;99.90
46091;DHT22;31826;53.572;10.170;2023-12-20T09:40:35;5.90;99.90
46091;DHT22;31826;53.572;10.170;2023-12-20T09:43:10;5.90;99.90
46091;DHT22;31826;53.572;10.170;2023-12-20T09:45:36;5.90;99.90
46091;DHT22;31826;53.572;10.170;2023-12-20T09:48:03;5.80;99.90
46091;DHT22;31826;53.572;10.170;2023-12-20T09:50:30;5.90;99.90
46091;DHT22;31826;53.572;10.170;2023-12-20T09:52:58;5.90;99.90
46091;DHT22;31826;53.572;10.170;2023-12-20T09:55:28;6.00;99.90
46091;DHT22;31826;53.572;10.170;2023-12-20T09:57:54;6.00;99.90
46091;DHT22;31826;53.572;10.170;2023-12-20T10:00:20;6.10;99.90
46091;DHT22;31826;53.572;10.170;2023-12-20T10:02:50;6.00;99.90
46091;DHT22;31826;53.572;10.170;2023-12-20T10:05:29;6.00;99.90
46091;DHT22;31826;53.572;10.170;2023-12-20T10:07:55;5.90;99.90
46091;DHT22;31826;53.572;10.170;2023-12-20T10:10:22;5.80;99.90
46091;DHT22;31826;53.572;10.170;2023-12-20T10:15:28;5.70;99.90
46091;DHT22;31826;53.572;10.170;2023-12-20T10:17:54;5.70;99.90
46091;DHT22;31826;53.572;10.170;2023-12-20T10:20:20;5.70;99.90
46091;DHT22;31826;53.572;10.170;2023-12-20T10:22:46;5.70;99.90
46091;DHT22;31826;53.572;10.170;2023-12-20T10:25:13;5.70;99.90
46091;DHT22;31826;53.572;10.170;2023-12-20T10:27:38;5.60;99.90
46091;DHT22;31826;53.572;10.170;2023-12-20T10:30:04;5.60;99.90
46091;DHT22;31826;53.572;10.170;2023-12-20T10:32:31;5.60;99.90
46091;DHT22;31826;53.572;10.170;2023-12-20T10:34:57;5.60;99.90
46091;DHT22;31826;53.572;10.170;2023-12-20T10:37:24;5.60;99.90
46091;DHT22;31826;53.572;10.170;2023-12-20T10:39:52;5.60;99.90
46091;DHT22;31826;53.572;10.170;2023-12-20T10:42:22;5.50;99.90
46091;DHT22;31826;53.572;10.170;2023-12-20T10:44:49;5.60;99.90
46091;DHT22;31826;53.572;10.170;2023-12-20T10:47:16;5.60;99.90
46091;DHT22;31826;53.572;10.170;2023-12-20T10:49:43;5.50;99.90
46091;DHT22;31826;53.572;10.170;2023-12-20T10:52:11;5.60;99.90
46091;DHT22;31826;53.572;10.170;2023-12-20T10:54:39;5.60;99.90
46091;DHT22;31826;53.572;10.170;2023-12-20T10:57:05;5.60;99.90
46091;DHT22;31826;53.572;10.170;2023-12-20T10:59:34;5.60;99.90
46091;DHT22;31826;53.572;10.170;2023-12-20T11:02:03;5.60;99.90
46091;DHT22;31826;53.572;10.170;2023-12-20T11:04:49;5.60;99.90
46091;DHT22;31826;53.572;10.170;2023-12-20T11:10:26;5.60;99.90
46091;DHT22;31826;53.572;10.170;2023-12-20T11:15:22;5.50;99.90
46091;DHT22;31826;53.572;10.170;2023-12-20T11:17:55;5.60;99.90
46091;DHT22;31826;53.572;10.170;2023-12-20T11:20:23;5.60;99.90
46091;DHT22;31826;53.572;10.170;2023-12-20T11:22:53;5.50;99.90
46091;DHT22;31826;53.572;10.170;2023-12-20T11:25:19;5.50;99.90
46091;DHT22;31826;53.572;10.170;2023-12-20T11:28:11;5.50;99.90
46091;DHT22;31826;53.572;10.170;2023-12-20T11:30:46;5.40;99.90
46091;DHT22;31826;53.572;10.170;2023-12-20T11:33:15;5.30;99.90
46091;DHT22;31826;53.572;10.170;2023-12-20T11:35:42;5.30;99.90
46091;DHT22;31826;53.572;10.170;2023-12-20T11:38:09;5.20;99.90
46091;DHT22;31826;53.572;10.170;2023-12-20T11:40:35;5.20;99.90
46091;DHT22;31826;53.572;10.170;2023-12-20T11:43:02;5.10;99.90
46091;DHT22;31826;53.572;10.170;2023-12-20T11:45:28;5.00;99.90
46091;DHT22;31826;53.572;10.170;2023-12-20T11:47:53;5.00;99.90
46091;DHT22;31826;53.572;10.170;2023-12-20T11:50:20;5.10;99.90
46091;DHT22;31826;53.572;10.170;2023-12-20T11:52:47;5.50;99.90
46091;DHT22;31826;53.572;10.170;2023-12-20T11:55:13;5.70;99.90
46091;DHT22;31826;53.572;10.170;2023-12-20T11:57:39;5.80;99.90
46091;DHT22;31826;53.572;10.170;2023-12-20T12:00:06;5.80;99.90
46091;DHT22;31826;53.572;10.170;2023-12-20T12:02:32;5.70;99.90
46091;DHT22;31826;53.572;10.170;2023-12-20T12:04:59;5.80;99.90
46091;DHT22;31826;53.572;10.170;2023-12-20T12:07:25;5.80;99.90
46091;DHT22;31826;53.572;10.170;2023-12-20T12:09:51;5.80;99.90
46091;DHT22;31826;53.572;10.170;2023-12-20T12:12:17;5.80;99.90
46091;DHT22;31826;53.572;10.170;2023-12-20T12:14:45;5.70;99.90
46091;DHT22;31826;53.572;10.170;2023-12-20T12:17:12;5.70;99.90
46091;DHT22;31826;53.572;10.170;2023-12-20T12:19:42;5.70;99.90
46091;DHT22;31826;53.572;10.170;2023-12-20T12:22:12;5.70;99.90
46091;DHT22;31826;53.572;10.170;2023-12-20T12:24:48;6.00;99.90
46091;DHT22;31826;53.572;10.170;2023-12-20T12:27:15;6.70;99.90
46091;DHT22;31826;53.572;10.170;2023-12-20T12:29:43;7.10;99.90
46091;DHT22;31826;53.572;10.170;2023-12-20T12:32:25;7.60;99.90
46091;DHT22;31826;53.572;10.170;2023-12-20T12:34:51;8.10;99.90
46091;DHT22;31826;53.572;10.170;2023-12-20T12:37:16;8.20;99.90
46091;DHT22;31826;53.572;10.170;2023-12-20T12:39:42;8.50;99.90
46091;DHT22;31826;53.572;10.170;2023-12-20T12:42:08;8.70;99.90
46091;DHT22;31826;53.572;10.170;2023-12-20T12:44:34;8.90;99.90
46091;DHT22;31826;53.572;10.170;2023-12-20T12:47:00;9.00;99.90
46091;DHT22;31826;53.572;10.170;2023-12-20T12:49:28;9.10;99.90
46091;DHT22;31826;53.572;10.170;2023-12-20T12:51:54;9.20;99.90
46091;DHT22;31826;53.572;10.170;2023-12-20T12:54:21;9.10;99.90
46091;DHT22;31826;53.572;10.170;2023-12-20T12:56:47;9.10;99.90
46091;DHT22;31826;53.572;10.170;2023-12-20T12:59:13;8.90;99.90
46091;DHT22;31826;53.572;10.170;2023-12-20T13:01:39;8.40;99.90
46091;DHT22;31826;53.572;10.170;2023-12-20T13:04:04;7.90;99.90
46091;DHT22;31826;53.572;10.170;2023-12-20T13:06:36;7.50;99.90
46091;DHT22;31826;53.572;10.170;2023-12-20T13:09:02;7.20;99.90
46091;DHT22;31826;53.572;10.170;2023-12-20T13:11:28;7.00;99.90
46091;DHT22;31826;53.572;10.170;2023-12-20T13:13:53;6.90;99.90
46091;DHT22;31826;53.572;10.170;2023-12-20T13:16:19;6.70;99.90
46091;DHT22;31826;53.572;10.170;2023-12-20T13:18:44;6.60;99.90
46091;DHT22;31826;53.572;10.170;2023-12-20T13:21:10;6.60;99.90
46091;DHT22;31826;53.572;10.170;2023-12-20T13:23:36;6.60;99.90
46091;DHT22;31826;53.572;10.170;2023-12-20T13:26:02;6.50;99.90
46091;DHT22;31826;53.572;10.170;2023-12-20T13:28:28;6.50;99.90
46091;DHT22;31826;53.572;10.170;2023-12-20T13:30:54;6.50;99.90
46091;DHT22;31826;53.572;10.170;2023-12-20T13:33:20;6.40;99.90
46091;DHT22;31826;53.572;10.170;2023-12-20T13:35:45;6.40;99.90
46091;DHT22;31826;53.572;10.170;2023-12-20T13:38:13;6.40;99.90
46091;DHT22;31826;53.572;10.170;2023-12-20T13:40:38;6.30;99.90
46091;DHT22;31826;53.572;10.170;2023-12-20T13:43:04;6.30;99.90
46091;DHT22;31826;53.572;10.170;2023-12-20T13:45:30;6.30;99.90
46091;DHT22;31826;53.572;10.170;2023-12-20T13:47:56;6.30;99.90
46091;DHT22;31826;53.572;10.170;2023-12-20T13:50:21;6.30;99.90
46091;DHT22;31826;53.572;10.170;2023-12-20T13:52:48;6.20;99.90
46091;DHT22;31826;53.572;10.170;2023-12-20T13:55:13;6.10;99.90
46091;DHT22;31826;53.572;10.170;2023-12-20T13:57:39;6.10;99.90
46091;DHT22;31826;53.572;10.170;2023-12-20T14:00:07;6.10;99.90
46091;DHT22;31826;53.572;10.170;2023-12-20T14:02:42;6.00;99.90
46091;DHT22;31826;53.572;10.170;2023-12-20T14:05:09;6.00;99.90
46091;DHT22;31826;53.572;10.170;2023-12-20T14:07:35;6.10;99.90
46091;DHT22;31826;53.572;10.170;2023-12-20T14:10:01;6.00;99.90
46091;DHT22;31826;53.572;10.170;2023-12-20T14:12:27;6.00;99.90
46091;DHT22;31826;53.572;10.170;2023-12-20T14:14:52;5.90;99.90
46091;DHT22;31826;53.572;10.170;2023-12-20T14:17:21;5.90;99.90
46091;DHT22;31826;53.572;10.170;2023-12-20T14:19:47;5.90;99.90
46091;DHT22;31826;53.572;10.170;2023-12-20T14:22:12;5.90;99.90
46091;DHT22;31826;53.572;10.170;2023-12-20T14:24:42;5.90;99.90
46091;DHT22;31826;53.572;10.170;2023-12-20T14:27:08;5.80;99.90
46091;DHT22;31826;53.572;10.170;2023-12-20T14:29:35;5.80;99.90
46091;DHT22;31826;53.572;10.170;2023-12-20T14:32:00;5.80;99.90
46091;DHT22;31826;53.572;10.170;2023-12-20T14:34:28;5.80;99.90
46091;DHT22;31826;53.572;10.170;2023-12-20T14:36:54;5.80;99.90
46091;DHT22;31826;53.572;10.170;2023-12-20T14:39:19;5.80;99.90
46091;DHT22;31826;53.572;10.170;2023-12-20T14:41:45;5.80;99.90
46091;DHT22;31826;53.572;10.170;2023-12-20T14:44:11;5.80;99.90
46091;DHT22;31826;53.572;10.170;2023-12-20T14:46:36;5.80;99.90
46091;DHT22;31826;53.572;10.170;2023-12-20T14:49:04;5.80;99.90
46091;DHT22;31826;53.572;10.170;2023-12-20T14:51:30;5.80;99.90
46091;DHT22;31826;53.572;10.170;2023-12-20T14:53:55;5.80;99.90
46091;DHT22;31826;53.572;10.170;2023-12-20T14:56:23;5.80;99.90
46091;DHT22;31826;53.572;10.170;2023-12-20T14:58:49;5.70;99.90
46091;DHT22;31826;53.572;10.170;2023-12-20T15:01:15;5.80;99.90
46091;DHT22;31826;53.572;10.170;2023-12-20T15:03:40;5.80;99.90
46091;DHT22;31826;53.572;10.170;2023-12-20T15:06:06;5.80;99.90
46091;DHT22;31826;53.572;10.170;2023-12-20T15:08:33;5.80;99.90
46091;DHT22;31826;53.572;10.170;2023-12-20T15:10:58;5.80;99.90
46091;DHT22;31826;53.572;10.170;2023-12-20T15:13:24;5.80;99.90
46091;DHT22;31826;53.572;10.170;2023-12-20T15:15:50;5.70;99.90
46091;DHT22;31826;53.572;10.170;2023-12-20T15:18:16;5.70;99.90
46091;DHT22;31826;53.572;10.170;2023-12-20T15:20:41;5.80;99.90
46091;DHT22;31826;53.572;10.170;2023-12-20T15:23:09;5.70;99.90
46091;DHT22;31826;53.572;10.170;2023-12-20T15:25:35;5.80;99.90
46091;DHT22;31826;53.572;10.170;2023-12-20T15:28:01;5.80;99.90
46091;DHT22;31826;53.572;10.170;2023-12-20T15:30:28;5.80;99.90
46091;DHT22;31826;53.572;10.170;2023-12-20T15:32:55;5.80;99.90